createdAt,value
2018-10-07T00:02:04.750Z,6.97
2018-10-07T00:04:40.027Z,8.60
2018-10-07T00:07:15.988Z,8.53
2018-10-07T00:09:51.940Z,8.07
2018-10-07T00:12:31.341Z,7.37
2018-10-07T00:15:07.585Z,8.10
2018-10-07T00:17:44.489Z,6.90
2018-10-07T00:20:25.379Z,6.90
2018-10-07T00:23:02.249Z,7.10
2018-10-07T00:25:40.816Z,6.77
2018-10-07T00:28:19.565Z,7.00
2018-10-07T00:30:56.646Z,7.00
2018-10-07T00:33:34.591Z,7.03
2018-10-07T00:36:11.253Z,7.43
2018-10-07T00:38:47.793Z,6.93
2018-10-07T00:41:24.313Z,7.47
2018-10-07T00:44:03.829Z,8.43
2018-10-07T00:46:42.501Z,6.17
2018-10-07T00:49:20.504Z,8.07
2018-10-07T00:51:57.588Z,7.40
2018-10-07T00:54:34.460Z,8.13
2018-10-07T00:57:11.173Z,8.53
2018-10-07T00:59:47.413Z,7.50
2018-10-07T01:02:22.677Z,7.43
2018-10-07T01:04:58.333Z,7.50
2018-10-07T01:07:35.321Z,8.33
2018-10-07T01:10:12.672Z,8.13
2018-10-07T01:12:49.472Z,8.00
2018-10-07T01:15:25.824Z,7.03
2018-10-07T01:18:03.056Z,9.10
2018-10-07T01:20:40.847Z,9.13
2018-10-07T01:23:18.187Z,11.70
2018-10-07T01:25:54.714Z,7.00
2018-10-07T01:28:32.572Z,6.40
2018-10-07T01:31:10.908Z,6.50
2018-10-07T01:33:48.485Z,7.73
2018-10-07T01:36:27.026Z,6.67
2018-10-07T01:39:05.463Z,8.13
2018-10-07T01:41:41.368Z,9.23
2018-10-07T01:44:17.263Z,7.23
2018-10-07T01:46:55.080Z,7.63
2018-10-07T01:49:30.868Z,7.30
2018-10-07T01:52:08.756Z,6.63
2018-10-07T01:54:45.182Z,7.00
2018-10-07T01:57:20.912Z,6.40
2018-10-07T01:59:57.106Z,6.53
2018-10-07T02:02:36.765Z,6.60
2018-10-07T02:05:14.288Z,6.77
2018-10-07T02:07:50.189Z,7.07
2018-10-07T02:10:26.454Z,7.20
2018-10-07T02:13:02.172Z,7.00
2018-10-07T02:15:38.957Z,7.10
2018-10-07T02:18:14.855Z,7.00
2018-10-07T02:20:51.001Z,6.70
2018-10-07T02:23:27.603Z,6.47
2018-10-07T02:26:05.222Z,6.83
2018-10-07T02:28:40.669Z,6.33
2018-10-07T02:31:17.216Z,6.20
2018-10-07T02:33:54.480Z,7.90
2018-10-07T02:36:30.369Z,8.03
2018-10-07T02:39:09.492Z,8.00
2018-10-07T02:41:45.378Z,6.90
2018-10-07T02:44:21.481Z,9.07
2018-10-07T02:46:57.163Z,6.93
2018-10-07T02:49:33.560Z,8.00
2018-10-07T02:52:10.186Z,6.80
2018-10-07T02:54:45.876Z,7.23
2018-10-07T02:57:21.272Z,6.43
2018-10-07T02:59:56.739Z,6.70
2018-10-07T03:02:32.583Z,6.80
2018-10-07T03:05:09.096Z,7.73
2018-10-07T03:07:45.997Z,7.80
2018-10-07T03:10:22.799Z,7.00
2018-10-07T03:12:58.981Z,6.90
2018-10-07T03:15:35.550Z,6.47
2018-10-07T03:18:14.435Z,6.80
2018-10-07T03:20:51.396Z,6.73
2018-10-07T03:23:28.501Z,8.83
2018-10-07T03:26:05.320Z,8.47
2018-10-07T03:28:41.161Z,8.67
2018-10-07T03:31:18.389Z,6.70
2018-10-07T03:33:54.326Z,5.20
2018-10-07T03:36:29.684Z,5.57
2018-10-07T03:39:06.495Z,5.70
2018-10-07T03:41:42.321Z,5.07
2018-10-07T03:44:19.564Z,4.30
2018-10-07T03:46:55.309Z,4.20
2018-10-07T03:49:32.080Z,4.10
2018-10-07T03:52:08.910Z,4.13
2018-10-07T03:54:45.247Z,3.33
2018-10-07T03:57:22.033Z,3.20
2018-10-07T03:59:57.816Z,2.77
2018-10-07T04:02:36.031Z,2.53
2018-10-07T04:05:14.436Z,3.53
2018-10-07T04:07:49.769Z,2.30
2018-10-07T04:10:25.088Z,2.87
2018-10-07T04:13:01.208Z,2.90
2018-10-07T04:15:38.997Z,3.17
2018-10-07T04:18:15.832Z,3.80
2018-10-07T04:20:52.321Z,4.70
2018-10-07T04:23:29.200Z,5.07
2018-10-07T04:26:05.336Z,6.17
2018-10-07T04:28:41.342Z,5.40
2018-10-07T04:31:17.530Z,4.67
2018-10-07T04:33:54.791Z,5.53
2018-10-07T04:36:31.017Z,6.20
2018-10-07T04:39:10.269Z,5.20
2018-10-07T04:41:46.569Z,6.03
2018-10-07T04:44:23.173Z,4.10
2018-10-07T04:47:00.220Z,4.80
2018-10-07T04:49:37.930Z,4.50
2018-10-07T04:52:15.870Z,4.57
2018-10-07T04:54:52.770Z,4.07
2018-10-07T04:57:29.323Z,3.90
2018-10-07T05:00:07.499Z,3.20
2018-10-07T05:02:45.555Z,3.77
2018-10-07T05:05:22.548Z,3.33
2018-10-07T05:08:00.527Z,2.83
2018-10-07T05:10:57.206Z,3.03
2018-10-07T05:13:39.604Z,2.47
2018-10-07T05:16:23.746Z,2.97
2018-10-07T05:19:01.450Z,2.50
2018-10-07T05:21:37.300Z,2.27
2018-10-07T05:24:13.358Z,1.87
2018-10-07T05:26:49.671Z,1.70
2018-10-07T05:29:26.406Z,1.93
2018-10-07T05:32:02.574Z,2.00
2018-10-07T05:34:38.717Z,2.50
2018-10-07T05:37:15.276Z,2.07
2018-10-07T05:39:52.667Z,4.10
2018-10-07T05:42:32.657Z,2.30
2018-10-07T05:45:11.965Z,2.50
2018-10-07T05:47:47.966Z,2.10
2018-10-07T05:50:25.808Z,2.07
2018-10-07T05:53:02.653Z,3.13
2018-10-07T05:55:39.671Z,2.13
2018-10-07T05:58:17.247Z,2.47
2018-10-07T06:00:53.144Z,2.33
2018-10-07T06:03:43.453Z,2.07
2018-10-07T06:06:19.664Z,2.50
2018-10-07T06:08:56.612Z,2.20
2018-10-07T06:11:33.504Z,2.00
2018-10-07T06:14:14.044Z,1.97
2018-10-07T06:16:51.355Z,2.13
2018-10-07T06:19:27.495Z,2.40
2018-10-07T06:22:04.640Z,1.90
2018-10-07T06:24:41.692Z,1.97
2018-10-07T06:27:19.233Z,1.70
2018-10-07T06:29:55.017Z,1.80
2018-10-07T06:32:32.604Z,1.73
2018-10-07T06:35:09.498Z,1.90
2018-10-07T06:37:47.594Z,1.57
2018-10-07T06:40:24.861Z,1.83
2018-10-07T06:43:02.713Z,1.77
2018-10-07T06:45:39.305Z,1.80
2018-10-07T06:48:15.284Z,1.73
2018-10-07T06:50:51.161Z,2.07
2018-10-07T06:53:27.711Z,1.77
2018-10-07T06:56:05.500Z,2.00
2018-10-07T06:58:42.531Z,2.10
2018-10-07T07:01:20.634Z,1.90
2018-10-07T07:04:00.297Z,1.87
2018-10-07T07:06:37.695Z,1.50
2018-10-07T07:09:13.645Z,1.70
2018-10-07T07:11:50.636Z,1.53
2018-10-07T07:14:26.411Z,1.80
2018-10-07T07:17:04.175Z,1.77
2018-10-07T07:19:40.423Z,1.57
2018-10-07T07:22:16.549Z,1.73
2018-10-07T07:24:54.988Z,2.10
2018-10-07T07:27:30.312Z,2.03
2018-10-07T07:30:07.597Z,1.63
2018-10-07T07:32:46.601Z,2.00
2018-10-07T07:35:22.683Z,1.97
2018-10-07T07:38:00.017Z,2.00
2018-10-07T07:40:38.225Z,1.80
2018-10-07T07:43:15.261Z,1.43
2018-10-07T07:45:52.325Z,1.60
2018-10-07T07:48:28.204Z,2.00
2018-10-07T07:51:06.181Z,1.73
2018-10-07T07:53:41.830Z,1.70
2018-10-07T07:56:19.390Z,1.37
2018-10-07T07:58:56.256Z,1.50
2018-10-07T08:01:32.684Z,1.30
2018-10-07T08:04:08.177Z,1.33
2018-10-07T08:06:45.325Z,1.40
2018-10-07T08:09:22.432Z,1.40
2018-10-07T08:11:58.151Z,1.40
2018-10-07T08:14:34.269Z,1.30
2018-10-07T08:17:10.870Z,1.50
2018-10-07T08:19:47.970Z,1.80
2018-10-07T08:22:26.801Z,1.77
2018-10-07T08:25:02.997Z,1.80
2018-10-07T08:27:39.573Z,1.57
2018-10-07T08:30:15.571Z,1.60
2018-10-07T08:32:51.236Z,1.67
2018-10-07T08:35:27.537Z,1.77
2018-10-07T08:38:06.447Z,1.80
2018-10-07T08:40:42.316Z,1.50
2018-10-07T08:43:17.426Z,1.60
2018-10-07T08:45:54.403Z,1.63
2018-10-07T08:48:31.304Z,1.90
2018-10-07T08:51:07.041Z,1.80
2018-10-07T08:53:43.230Z,1.80
2018-10-07T08:56:19.827Z,1.90
2018-10-07T08:58:56.580Z,1.63
2018-10-07T09:01:32.328Z,1.63
2018-10-07T09:04:08.325Z,1.87
2018-10-07T09:06:46.979Z,1.73
2018-10-07T09:09:23.100Z,2.70
2018-10-07T09:11:59.493Z,1.20
2018-10-07T09:14:35.775Z,1.53
2018-10-07T09:17:13.493Z,1.67
2018-10-07T09:19:49.773Z,2.13
2018-10-07T09:22:31.064Z,1.50
2018-10-07T09:25:08.647Z,1.60
2018-10-07T09:27:45.452Z,2.30
2018-10-07T09:30:23.660Z,1.17
2018-10-07T09:33:01.006Z,2.17
2018-10-07T09:35:37.299Z,1.70
2018-10-07T09:38:16.751Z,2.30
2018-10-07T09:40:54.587Z,4.50
2018-10-07T09:43:31.346Z,2.10
2018-10-07T09:46:09.463Z,1.60
2018-10-07T09:48:45.597Z,1.83
2018-10-07T09:51:23.479Z,1.30
2018-10-07T09:54:00.761Z,1.70
2018-10-07T09:56:36.532Z,1.50
2018-10-07T09:59:12.691Z,1.27
2018-10-07T10:01:49.646Z,1.30
2018-10-07T10:04:27.260Z,1.50
2018-10-07T10:07:03.743Z,3.83
2018-10-07T10:09:40.508Z,1.67
2018-10-07T10:12:20.172Z,1.90
2018-10-07T10:14:55.693Z,2.00
2018-10-07T10:17:34.519Z,1.80
2018-10-07T10:20:12.158Z,2.00
2018-10-07T10:23:21.507Z,1.70
2018-10-07T10:26:00.171Z,1.50
2018-10-07T10:28:41.629Z,2.93
2018-10-07T10:31:22.788Z,1.77
2018-10-07T10:34:04.424Z,1.57
2018-10-07T10:36:47.080Z,1.90
2018-10-07T10:39:29.838Z,2.07
2018-10-07T10:42:09.319Z,2.00
2018-10-07T10:44:47.732Z,1.60
2018-10-07T10:47:26.408Z,2.07
2018-10-07T10:50:06.034Z,2.50
2018-10-07T10:52:50.542Z,1.80
2018-10-07T10:55:29.703Z,1.97
2018-10-07T10:58:07.033Z,2.30
2018-10-07T11:00:52.818Z,2.50
2018-10-07T11:04:03.862Z,1.73
2018-10-07T11:07:15.500Z,1.90
2018-10-07T11:09:54.084Z,2.30
2018-10-07T11:12:40.149Z,2.60
2018-10-07T11:15:26.745Z,2.53
2018-10-07T11:19:14.224Z,2.73
2018-10-07T11:22:01.123Z,2.20
2018-10-07T11:24:57.445Z,2.37
2018-10-07T11:27:40.684Z,2.63
2018-10-07T11:32:28.145Z,2.40
2018-10-07T11:36:09.033Z,2.20
2018-10-07T11:41:02.089Z,2.27
2018-10-07T11:43:51.469Z,2.57
2018-10-07T11:47:03.763Z,2.77
2018-10-07T11:49:51.829Z,2.80
2018-10-07T11:53:09.232Z,2.13
2018-10-07T11:55:46.405Z,2.13
2018-10-07T11:58:24.402Z,3.13
2018-10-07T12:01:03.665Z,2.40
2018-10-07T12:03:40.613Z,2.70
2018-10-07T12:06:17.257Z,2.50
2018-10-07T12:08:54.582Z,1.40
2018-10-07T12:11:32.657Z,2.40
2018-10-07T12:14:09.717Z,2.43
2018-10-07T12:16:47.373Z,2.00
2018-10-07T12:19:24.713Z,2.10
2018-10-07T12:22:02.236Z,2.23
2018-10-07T12:24:40.914Z,2.23
2018-10-07T12:27:20.673Z,3.03
2018-10-07T12:29:56.845Z,2.87
2018-10-07T12:32:36.241Z,3.40
2018-10-07T12:35:12.665Z,2.90
2018-10-07T12:37:52.900Z,2.90
2018-10-07T12:40:30.095Z,14.43
2018-10-07T12:43:08.934Z,2.60
2018-10-07T12:45:45.577Z,3.73
2018-10-07T12:48:27.421Z,2.70
2018-10-07T12:51:03.791Z,2.80
2018-10-07T12:53:43.221Z,2.10
2018-10-07T12:56:21.552Z,2.33
2018-10-07T12:58:59.846Z,2.03
2018-10-07T13:01:37.303Z,2.77
2018-10-07T13:04:15.754Z,2.03
2018-10-07T13:06:52.576Z,2.40
2018-10-07T13:09:29.616Z,2.03
2018-10-07T13:12:06.572Z,1.50
2018-10-07T13:14:44.184Z,2.40
2018-10-07T13:17:21.108Z,2.80
2018-10-07T13:19:59.403Z,3.87
2018-10-07T13:22:36.524Z,2.10
2018-10-07T13:25:13.485Z,2.50
2018-10-07T13:27:52.787Z,2.83
2018-10-07T13:30:30.896Z,1.70
2018-10-07T13:33:08.481Z,1.50
2018-10-07T13:35:47.566Z,1.83
2018-10-07T13:38:23.281Z,2.70
2018-10-07T13:41:00.786Z,1.63
2018-10-07T13:43:37.767Z,1.40
2018-10-07T13:46:13.512Z,1.37
2018-10-07T13:48:51.517Z,1.47
2018-10-07T13:51:28.597Z,1.80
2018-10-07T13:54:07.829Z,1.50
2018-10-07T13:56:44.444Z,1.60
2018-10-07T13:59:20.534Z,1.97
2018-10-07T14:01:59.713Z,1.17
2018-10-07T14:04:36.152Z,1.40
2018-10-07T14:07:15.548Z,1.40
2018-10-07T14:09:51.868Z,1.30
2018-10-07T14:12:30.289Z,1.40
2018-10-07T14:15:07.462Z,1.60
2018-10-07T14:17:45.170Z,1.40
2018-10-07T14:20:21.872Z,1.90
2018-10-07T14:23:00.265Z,1.30
2018-10-07T14:25:37.130Z,1.67
2018-10-07T14:28:15.167Z,1.50
2018-10-07T14:30:53.834Z,2.10
2018-10-07T14:33:31.684Z,1.53
2018-10-07T14:36:09.035Z,2.40
2018-10-07T14:38:46.250Z,1.30
2018-10-07T14:41:24.161Z,1.80
2018-10-07T14:44:02.614Z,2.37
2018-10-07T14:46:40.095Z,1.53
2018-10-07T14:49:17.976Z,1.63
2018-10-07T14:51:56.110Z,1.67
2018-10-07T14:54:32.927Z,2.13
2018-10-07T14:57:11.391Z,1.50
2018-10-07T14:59:50.451Z,1.60
2018-10-07T15:02:29.610Z,1.70
2018-10-07T15:05:06.187Z,1.70
2018-10-07T15:07:44.520Z,1.80
2018-10-07T15:10:21.733Z,1.60
2018-10-07T15:12:59.196Z,1.40
2018-10-07T15:15:37.595Z,1.80
2018-10-07T15:18:15.375Z,1.80
2018-10-07T15:20:52.909Z,1.33
2018-10-07T15:23:31.255Z,1.97
2018-10-07T15:26:08.862Z,1.80
2018-10-07T15:28:45.895Z,2.00
2018-10-07T15:31:23.461Z,1.60
2018-10-07T15:34:02.691Z,1.70
2018-10-07T15:36:40.169Z,1.63
2018-10-07T15:39:16.795Z,1.63
2018-10-07T15:41:55.174Z,1.90
2018-10-07T15:44:31.076Z,1.97
2018-10-07T15:47:08.296Z,1.70
2018-10-07T15:49:45.421Z,1.70
2018-10-07T15:52:23.290Z,5.30
2018-10-07T15:55:01.721Z,1.67
2018-10-07T15:57:41.409Z,3.17
2018-10-07T16:00:17.615Z,1.90
2018-10-07T16:02:54.277Z,1.77
2018-10-07T16:05:30.195Z,1.50
2018-10-07T16:08:07.342Z,1.50
2018-10-07T16:10:46.803Z,1.53
2018-10-07T16:13:25.610Z,1.40
2018-10-07T16:16:03.212Z,1.97
2018-10-07T16:18:41.379Z,1.70
2018-10-07T16:21:19.478Z,1.70
2018-10-07T16:23:58.500Z,2.03
2018-10-07T16:26:36.919Z,1.40
2018-10-07T16:29:14.215Z,1.40
2018-10-07T16:31:50.288Z,1.60
2018-10-07T16:34:27.263Z,1.50
2018-10-07T16:37:04.140Z,1.77
2018-10-07T16:39:43.626Z,1.50
2018-10-07T16:42:21.325Z,1.70
2018-10-07T16:44:58.188Z,2.30
2018-10-07T16:47:35.121Z,1.53
2018-10-07T16:50:11.506Z,2.13
2018-10-07T16:52:50.087Z,1.40
2018-10-07T16:55:27.480Z,1.50
2018-10-07T16:58:06.431Z,1.80
2018-10-07T17:00:42.325Z,2.70
2018-10-07T17:03:20.236Z,1.87
2018-10-07T17:05:57.010Z,2.00
2018-10-07T17:08:34.625Z,1.87
2018-10-07T17:11:10.900Z,1.70
2018-10-07T17:13:46.965Z,1.90
2018-10-07T17:16:22.691Z,1.60
2018-10-07T17:19:01.833Z,2.70
2018-10-07T17:21:38.181Z,3.80
2018-10-07T17:24:16.095Z,1.70
2018-10-07T17:26:52.282Z,1.83
2018-10-07T17:29:27.478Z,1.60
2018-10-07T17:32:05.584Z,2.00
2018-10-07T17:34:41.141Z,2.00
2018-10-07T17:37:18.165Z,1.70
2018-10-07T17:39:55.872Z,1.70
2018-10-07T17:42:33.711Z,1.90
2018-10-07T17:45:11.403Z,1.60
2018-10-07T17:47:47.702Z,2.43
2018-10-07T17:50:23.049Z,2.33
2018-10-07T17:53:00.244Z,2.10
2018-10-07T17:55:37.077Z,2.10
2018-10-07T17:58:13.098Z,2.37
2018-10-07T18:00:50.334Z,2.73
2018-10-07T18:03:28.125Z,2.10
2018-10-07T18:06:03.549Z,1.60
2018-10-07T18:08:40.022Z,1.80
2018-10-07T18:11:16.058Z,1.90
2018-10-07T18:13:53.452Z,2.50
2018-10-07T18:16:32.649Z,2.30
2018-10-07T18:19:09.912Z,2.00
2018-10-07T18:21:48.666Z,2.10
2018-10-07T18:24:25.397Z,2.10
2018-10-07T18:27:01.700Z,2.53
2018-10-07T18:29:39.081Z,2.10
2018-10-07T18:32:18.689Z,2.00
2018-10-07T18:34:57.007Z,2.37
2018-10-07T18:37:34.002Z,2.47
2018-10-07T18:40:11.168Z,2.00
2018-10-07T18:42:49.785Z,1.67
2018-10-07T18:45:26.467Z,2.00
2018-10-07T18:48:03.951Z,1.83
2018-10-07T18:50:41.902Z,2.23
2018-10-07T18:53:18.352Z,3.20
2018-10-07T18:55:54.876Z,2.37
2018-10-07T18:58:32.077Z,1.70
2018-10-07T19:01:10.688Z,1.93
2018-10-07T19:03:48.600Z,2.27
2018-10-07T19:06:26.622Z,1.90
2018-10-07T19:09:04.685Z,1.90
2018-10-07T19:11:40.404Z,2.33
2018-10-07T19:14:16.696Z,2.87
2018-10-07T19:16:53.616Z,2.03
2018-10-07T19:19:30.703Z,1.83
2018-10-07T19:22:06.983Z,8.10
2018-10-07T19:24:42.811Z,4.90
2018-10-07T19:27:19.071Z,3.13
2018-10-07T19:30:00.450Z,3.07
2018-10-07T19:32:37.947Z,3.10
2018-10-07T19:35:13.825Z,3.63
2018-10-07T19:37:50.812Z,4.27
2018-10-07T19:40:26.928Z,4.20
2018-10-07T19:43:03.443Z,3.23
2018-10-07T19:45:40.704Z,2.97
2018-10-07T19:48:17.257Z,3.20
2018-10-07T19:50:54.410Z,3.03
2018-10-07T19:53:31.853Z,4.17
2018-10-07T19:56:08.097Z,2.87
2018-10-07T19:58:44.714Z,2.33
2018-10-07T20:01:21.076Z,3.57
2018-10-07T20:03:58.156Z,2.53
2018-10-07T20:06:34.742Z,3.17
2018-10-07T20:09:13.566Z,7.57
2018-10-07T20:11:49.902Z,2.47
2018-10-07T20:14:27.321Z,1.97
2018-10-07T20:17:05.039Z,5.00
2018-10-07T20:19:41.268Z,2.97
2018-10-07T20:22:19.252Z,3.47
2018-10-07T20:24:57.472Z,2.83
2018-10-07T20:27:34.697Z,2.10
2018-10-07T20:30:12.942Z,2.77
2018-10-07T20:32:50.542Z,2.70
2018-10-07T20:35:29.616Z,2.73
2018-10-07T20:38:10.969Z,2.30
2018-10-07T20:40:47.596Z,2.60
2018-10-07T20:43:25.122Z,1.90
2018-10-07T20:46:03.445Z,2.40
2018-10-07T20:48:41.380Z,2.67
2018-10-07T20:51:18.370Z,2.20
2018-10-07T20:53:57.152Z,2.30
2018-10-07T20:56:33.345Z,4.30
2018-10-07T20:59:11.184Z,2.30
2018-10-07T21:01:47.419Z,2.30
2018-10-07T21:04:27.107Z,20.93
2018-10-07T21:07:03.822Z,2.20
2018-10-07T21:09:39.705Z,2.57
2018-10-07T21:12:16.886Z,3.33
2018-10-07T21:14:54.373Z,2.90
2018-10-07T21:17:31.369Z,3.03
2018-10-07T21:20:08.360Z,3.10
2018-10-07T21:22:45.554Z,2.53
2018-10-07T21:25:22.091Z,2.90
2018-10-07T21:27:59.106Z,3.83
2018-10-07T21:30:35.081Z,2.47
2018-10-07T21:33:13.461Z,2.50
2018-10-07T21:35:51.158Z,2.60
2018-10-07T21:38:28.280Z,2.83
2018-10-07T21:41:08.000Z,2.80
2018-10-07T21:43:46.610Z,2.80
2018-10-07T21:46:23.554Z,2.33
2018-10-07T21:49:00.621Z,2.60
2018-10-07T21:51:38.859Z,2.37
2018-10-07T21:54:15.467Z,1.93
2018-10-07T21:56:56.754Z,2.00
2018-10-07T21:59:36.095Z,2.63
2018-10-07T22:02:13.920Z,2.20
2018-10-07T22:04:52.194Z,2.00
2018-10-07T22:07:29.442Z,2.10
2018-10-07T22:10:06.426Z,1.93
2018-10-07T22:12:43.500Z,2.40
2018-10-07T22:15:19.935Z,1.80
2018-10-07T22:17:56.859Z,1.77
2018-10-07T22:20:34.697Z,1.60
2018-10-07T22:23:11.808Z,2.87
2018-10-07T22:25:48.846Z,1.53
2018-10-07T22:28:25.421Z,1.60
2018-10-07T22:31:04.686Z,1.70
2018-10-07T22:33:42.153Z,1.70
2018-10-07T22:36:19.456Z,1.90
2018-10-07T22:38:56.544Z,1.80
2018-10-07T22:41:34.291Z,1.60
2018-10-07T22:44:11.953Z,1.40
2018-10-07T22:46:48.849Z,1.80
2018-10-07T22:49:26.409Z,1.70
2018-10-07T22:52:03.752Z,1.83
2018-10-07T22:54:40.805Z,1.77
2018-10-07T22:57:17.288Z,1.40
2018-10-07T22:59:54.561Z,1.43
2018-10-07T23:02:31.595Z,1.77
2018-10-07T23:05:10.643Z,1.87
2018-10-07T23:07:49.430Z,1.50
2018-10-07T23:10:27.409Z,1.70
2018-10-07T23:13:03.761Z,2.27
2018-10-07T23:15:41.506Z,2.17
2018-10-07T23:18:19.162Z,1.67
2018-10-07T23:20:57.512Z,2.97
2018-10-07T23:23:34.395Z,9.00
2018-10-07T23:26:14.480Z,1.70
2018-10-07T23:28:51.396Z,1.87
2018-10-07T23:31:29.213Z,1.43
2018-10-07T23:34:07.077Z,1.40
2018-10-07T23:36:44.792Z,1.80
2018-10-07T23:39:21.157Z,1.37
2018-10-07T23:41:59.897Z,1.40
2018-10-07T23:44:37.436Z,1.37
2018-10-07T23:47:15.844Z,1.30
2018-10-07T23:49:52.930Z,2.63
2018-10-07T23:52:32.568Z,1.60
2018-10-07T23:55:09.100Z,1.93
2018-10-07T23:57:46.628Z,1.73
